createdAt,value
2023-10-06T00:00:41.688Z,1.83
2023-10-06T00:03:12.311Z,1.80
2023-10-06T00:05:40.698Z,1.30
2023-10-06T00:08:12.214Z,1.70
2023-10-06T00:10:45.520Z,1.80
2023-10-06T00:13:20.114Z,1.40
2023-10-06T00:15:51.094Z,1.50
2023-10-06T00:18:21.430Z,0.93
2023-10-06T00:20:51.006Z,1.10
2023-10-06T00:23:23.073Z,1.20
2023-10-06T00:25:53.864Z,0.95
2023-10-06T00:28:27.234Z,1.30
2023-10-06T00:30:58.057Z,1.27
2023-10-06T00:33:29.169Z,1.10
2023-10-06T00:35:58.239Z,1.02
2023-10-06T00:38:26.198Z,0.98
2023-10-06T00:40:54.104Z,1.10
2023-10-06T00:43:36.109Z,1.20
2023-10-06T00:46:08.567Z,1.23
2023-10-06T00:48:40.927Z,1.48
2023-10-06T00:51:13.758Z,1.30
2023-10-06T00:53:42.505Z,1.08
2023-10-06T00:56:16.690Z,0.98
2023-10-06T00:58:46.932Z,1.40
2023-10-06T01:01:18.731Z,1.38
2023-10-06T01:03:50.026Z,1.30
2023-10-06T01:06:19.646Z,1.48
2023-10-06T01:08:53.923Z,1.30
2023-10-06T01:11:27.840Z,1.55
2023-10-06T01:13:57.525Z,1.40
2023-10-06T01:16:31.186Z,1.10
2023-10-06T01:19:15.335Z,1.17
2023-10-06T01:21:46.880Z,1.70
2023-10-06T01:24:25.566Z,1.70
2023-10-06T01:26:55.271Z,1.65
2023-10-06T01:29:30.237Z,1.75
2023-10-06T01:31:58.366Z,1.58
2023-10-06T01:34:28.594Z,1.42
2023-10-06T01:36:57.285Z,2.63
2023-10-06T01:39:31.612Z,1.25
2023-10-06T01:42:05.165Z,1.30
2023-10-06T01:44:33.238Z,1.55
2023-10-06T01:47:01.092Z,1.70
2023-10-06T01:49:29.309Z,1.63
2023-10-06T01:52:09.017Z,1.35
2023-10-06T01:54:39.743Z,2.03
2023-10-06T01:57:08.765Z,1.45
2023-10-06T01:59:36.671Z,1.50
2023-10-06T02:02:05.708Z,1.70
2023-10-06T02:04:40.720Z,1.90
2023-10-06T02:07:11.777Z,2.30
2023-10-06T02:09:41.314Z,2.08
2023-10-06T02:12:09.679Z,1.42
2023-10-06T02:14:37.884Z,1.60
2023-10-06T02:17:07.761Z,2.42
2023-10-06T02:22:07.414Z,1.35
2023-10-06T02:24:35.727Z,1.75
2023-10-06T02:27:05.628Z,1.38
2023-10-06T02:29:33.458Z,1.63
2023-10-06T02:32:07.278Z,1.98
2023-10-06T02:34:37.909Z,2.20
2023-10-06T02:37:07.361Z,1.58
2023-10-06T02:39:38.825Z,1.50
2023-10-06T02:42:10.593Z,1.30
2023-10-06T02:44:42.401Z,1.70
2023-10-06T02:47:12.313Z,1.17
2023-10-06T02:49:42.371Z,1.50
2023-10-06T02:55:10.025Z,1.07
2023-10-06T02:57:43.642Z,1.33
2023-10-06T03:00:29.317Z,1.23
2023-10-06T03:02:58.716Z,1.30
2023-10-06T03:05:33.255Z,1.00
2023-10-06T03:08:03.022Z,1.65
2023-10-06T03:10:37.138Z,1.58
2023-10-06T03:13:09.862Z,1.33
2023-10-06T03:15:46.482Z,1.30
2023-10-06T03:18:17.479Z,1.45
2023-10-06T03:20:49.486Z,1.02
2023-10-06T03:23:34.285Z,1.20
2023-10-06T03:26:05.591Z,1.15
2023-10-06T03:28:37.956Z,1.38
2023-10-06T03:31:22.855Z,1.38
2023-10-06T03:33:55.469Z,1.60
2023-10-06T03:36:30.399Z,1.25
2023-10-06T03:38:58.458Z,1.10
2023-10-06T03:41:32.642Z,1.13
2023-10-06T03:44:04.504Z,1.20
2023-10-06T03:46:38.307Z,1.90
2023-10-06T03:49:06.699Z,1.70
2023-10-06T03:51:39.049Z,1.20
2023-10-06T03:54:09.030Z,1.13
2023-10-06T03:59:13.786Z,1.10
2023-10-06T04:01:45.535Z,2.10
2023-10-06T04:04:15.415Z,1.55
2023-10-06T04:06:45.381Z,1.48
2023-10-06T04:09:20.104Z,1.50
2023-10-06T04:11:48.246Z,1.50
2023-10-06T04:14:18.017Z,1.60
2023-10-06T04:16:47.194Z,1.02
2023-10-06T04:19:17.403Z,2.85
2023-10-06T04:21:45.337Z,1.58
2023-10-06T04:24:15.874Z,1.20
2023-10-06T04:26:43.809Z,1.20
2023-10-06T04:29:14.640Z,1.20
2023-10-06T04:31:47.140Z,1.20
2023-10-06T04:34:15.302Z,1.15
2023-10-06T04:36:44.050Z,1.17
2023-10-06T04:39:12.643Z,1.30
2023-10-06T04:41:42.443Z,1.08
2023-10-06T04:44:11.340Z,1.20
2023-10-06T04:46:40.848Z,1.05
2023-10-06T04:49:10.490Z,1.75
2023-10-06T04:51:38.402Z,1.08
2023-10-06T04:54:09.485Z,1.00
2023-10-06T04:56:37.542Z,1.20
2023-10-06T04:59:07.906Z,0.90
2023-10-06T05:01:36.301Z,1.38
2023-10-06T05:04:07.483Z,0.90
2023-10-06T05:06:37.077Z,1.77
2023-10-06T05:09:07.622Z,1.13
2023-10-06T05:11:37.106Z,1.45
2023-10-06T05:14:06.099Z,1.25
2023-10-06T05:16:36.174Z,1.15
2023-10-06T05:21:32.942Z,1.17
2023-10-06T05:24:02.130Z,1.23
2023-10-06T05:26:30.043Z,1.20
2023-10-06T05:28:58.026Z,1.30
2023-10-06T05:31:25.889Z,1.35
2023-10-06T05:33:53.987Z,0.90
2023-10-06T05:36:21.899Z,1.17
2023-10-06T05:38:50.513Z,1.08
2023-10-06T05:41:20.338Z,1.40
2023-10-06T05:43:50.207Z,1.80
2023-10-06T05:46:18.225Z,1.55
2023-10-06T05:48:46.063Z,1.35
2023-10-06T05:51:20.002Z,1.25
2023-10-06T05:53:49.534Z,1.40
2023-10-06T05:56:19.523Z,1.13
2023-10-06T05:58:48.943Z,1.15
2023-10-06T06:01:20.209Z,1.23
2023-10-06T06:03:49.116Z,1.20
2023-10-06T06:06:18.007Z,1.30
2023-10-06T06:08:49.003Z,1.70
2023-10-06T06:11:17.634Z,1.75
2023-10-06T06:13:52.895Z,1.63
2023-10-06T06:16:29.189Z,1.77
2023-10-06T06:18:57.615Z,1.48
2023-10-06T06:21:26.638Z,1.70
2023-10-06T06:23:56.980Z,0.93
2023-10-06T06:26:25.436Z,1.27
2023-10-06T06:28:54.152Z,1.38
2023-10-06T06:31:22.686Z,1.52
2023-10-06T06:33:58.278Z,1.25
2023-10-06T06:36:26.724Z,1.60
2023-10-06T06:38:55.134Z,1.20
2023-10-06T06:41:23.392Z,1.42
2023-10-06T06:43:55.773Z,1.77
2023-10-06T06:46:23.706Z,1.30
2023-10-06T06:48:53.231Z,1.23
2023-10-06T06:51:21.168Z,1.38
2023-10-06T06:53:49.306Z,1.08
2023-10-06T06:56:18.363Z,1.77
2023-10-06T06:58:47.745Z,0.95
2023-10-06T07:01:17.318Z,1.10
2023-10-06T07:03:45.378Z,1.02
2023-10-06T07:06:17.592Z,1.10
2023-10-06T07:08:46.829Z,1.00
2023-10-06T07:11:16.841Z,1.75
2023-10-06T07:13:46.694Z,1.40
2023-10-06T07:16:15.811Z,1.10
2023-10-06T07:18:44.120Z,1.20
2023-10-06T07:21:12.715Z,1.00
2023-10-06T07:23:41.992Z,1.13
2023-10-06T07:26:13.168Z,1.00
2023-10-06T07:28:41.262Z,1.00
2023-10-06T07:31:14.454Z,1.50
2023-10-06T07:33:43.482Z,1.30
2023-10-06T07:36:15.441Z,1.00
2023-10-06T07:38:44.665Z,1.00
2023-10-06T07:41:19.248Z,0.93
2023-10-06T07:43:49.267Z,1.00
2023-10-06T07:46:18.163Z,1.00
2023-10-06T07:48:47.310Z,1.55
2023-10-06T07:51:17.443Z,0.98
2023-10-06T07:53:46.876Z,0.98
2023-10-06T07:56:15.881Z,0.98
2023-10-06T07:58:44.627Z,1.13
2023-10-06T08:01:14.495Z,0.95
2023-10-06T08:03:43.489Z,1.33
2023-10-06T08:06:13.018Z,1.23
2023-10-06T08:08:40.922Z,1.03
2023-10-06T08:11:11.485Z,1.05
2023-10-06T08:13:40.078Z,1.25
2023-10-06T08:16:09.063Z,1.08
2023-10-06T08:18:36.984Z,0.98
2023-10-06T08:21:05.046Z,1.20
2023-10-06T08:23:33.682Z,0.85
2023-10-06T08:26:02.616Z,0.98
2023-10-06T08:28:32.871Z,1.05
2023-10-06T08:31:03.866Z,1.60
2023-10-06T08:33:32.907Z,0.85
2023-10-06T08:36:02.991Z,1.30
2023-10-06T08:38:31.897Z,1.10
2023-10-06T08:41:04.273Z,1.23
2023-10-06T08:43:39.986Z,1.00
2023-10-06T08:46:09.412Z,1.17
2023-10-06T08:48:38.114Z,0.98
2023-10-06T08:51:09.039Z,1.50
2023-10-06T08:53:39.451Z,0.82
2023-10-06T08:58:37.713Z,1.02
2023-10-06T09:01:07.621Z,1.00
2023-10-06T09:03:40.199Z,1.10
2023-10-06T09:06:09.865Z,1.02
2023-10-06T09:08:41.485Z,0.90
2023-10-06T09:11:09.539Z,1.30
2023-10-06T09:13:38.921Z,1.05
2023-10-06T09:16:08.364Z,0.95
2023-10-06T09:18:40.416Z,1.00
2023-10-06T09:21:17.342Z,1.15
2023-10-06T09:23:45.655Z,1.23
2023-10-06T09:26:14.750Z,1.10
2023-10-06T09:28:54.380Z,1.63
2023-10-06T09:31:37.286Z,1.20
2023-10-06T09:34:09.181Z,0.70
2023-10-06T09:36:44.015Z,0.90
2023-10-06T09:39:18.774Z,1.10
2023-10-06T09:41:49.326Z,0.90
2023-10-06T09:44:21.327Z,1.05
2023-10-06T09:46:54.999Z,0.80
2023-10-06T09:49:24.026Z,0.90
2023-10-06T09:51:54.091Z,1.02
2023-10-06T09:54:22.503Z,1.08
2023-10-06T09:56:56.274Z,0.98
2023-10-06T10:04:46.918Z,0.80
2023-10-06T10:07:15.094Z,0.85
2023-10-06T10:09:44.839Z,1.08
2023-10-06T10:12:33.851Z,1.30
2023-10-06T10:15:17.324Z,0.80
2023-10-06T10:17:56.102Z,0.80
2023-10-06T10:20:27.050Z,0.95
2023-10-06T10:22:57.954Z,1.02
2023-10-06T10:25:26.608Z,1.02
2023-10-06T10:28:15.393Z,0.90
2023-10-06T10:30:54.997Z,1.35
2023-10-06T10:33:23.396Z,1.45
2023-10-06T10:36:21.295Z,1.17
2023-10-06T10:39:03.926Z,1.33
2023-10-06T10:41:36.248Z,1.27
2023-10-06T10:44:22.743Z,1.05
2023-10-06T10:46:55.210Z,1.13
2023-10-06T10:49:24.090Z,1.38
2023-10-06T10:51:55.959Z,0.90
2023-10-06T10:54:25.196Z,1.20
2023-10-06T10:56:54.428Z,1.00
2023-10-06T10:59:23.661Z,1.25
2023-10-06T11:01:54.357Z,1.45
2023-10-06T11:04:30.834Z,1.25
2023-10-06T11:07:02.628Z,1.30
2023-10-06T11:09:41.625Z,1.08
2023-10-06T11:12:25.899Z,1.50
2023-10-06T11:14:56.731Z,1.20
2023-10-06T11:17:26.179Z,2.40
2023-10-06T11:20:14.492Z,0.97
2023-10-06T11:22:43.228Z,1.45
2023-10-06T11:25:11.958Z,1.30
2023-10-06T11:27:40.824Z,1.10
2023-10-06T11:30:16.023Z,1.17
2023-10-06T11:32:44.127Z,1.23
2023-10-06T11:35:14.663Z,1.30
2023-10-06T11:37:43.362Z,1.58
2023-10-06T11:40:13.907Z,1.92
2023-10-06T11:42:42.687Z,1.38
2023-10-06T11:45:25.370Z,1.63
2023-10-06T11:47:54.818Z,1.30
2023-10-06T11:50:25.741Z,1.27
2023-10-06T11:52:54.518Z,1.30
2023-10-06T11:55:27.214Z,1.30
2023-10-06T11:57:55.577Z,1.15
2023-10-06T12:00:41.332Z,1.15
2023-10-06T12:03:12.695Z,2.28
2023-10-06T12:05:56.427Z,1.00
2023-10-06T12:08:26.080Z,1.13
2023-10-06T12:10:54.722Z,1.33
2023-10-06T12:13:22.973Z,1.27
2023-10-06T12:15:50.854Z,1.33
2023-10-06T12:18:18.776Z,0.82
2023-10-06T12:20:48.076Z,1.15
2023-10-06T12:23:16.015Z,1.25
2023-10-06T12:25:43.987Z,1.30
2023-10-06T12:28:15.573Z,1.17
2023-10-06T12:30:43.701Z,1.23
2023-10-06T12:33:12.493Z,1.00
2023-10-06T12:35:41.184Z,1.13
2023-10-06T12:38:10.676Z,1.30
2023-10-06T12:40:40.336Z,1.42
2023-10-06T12:43:09.320Z,1.47
2023-10-06T12:45:37.983Z,1.23
2023-10-06T12:48:09.088Z,1.40
2023-10-06T12:50:41.875Z,1.17
2023-10-06T12:53:12.978Z,1.48
2023-10-06T12:55:43.200Z,1.83
2023-10-06T12:58:15.833Z,1.48
2023-10-06T13:00:43.960Z,0.93
2023-10-06T13:03:17.074Z,1.00
2023-10-06T13:05:46.737Z,1.05
2023-10-06T13:08:18.891Z,1.08
2023-10-06T13:10:48.215Z,1.05
2023-10-06T13:13:18.043Z,1.38
2023-10-06T13:15:47.324Z,0.82
2023-10-06T13:18:17.368Z,1.23
2023-10-06T13:20:45.628Z,1.20
2023-10-06T13:23:13.551Z,0.82
2023-10-06T13:25:47.093Z,0.73
2023-10-06T13:28:18.129Z,0.60
2023-10-06T13:30:46.997Z,0.73
2023-10-06T13:33:15.924Z,0.80
2023-10-06T13:35:45.264Z,0.82
2023-10-06T13:38:14.423Z,0.68
2023-10-06T13:40:46.207Z,0.88
2023-10-06T13:43:14.963Z,0.75
2023-10-06T13:45:46.503Z,1.00
2023-10-06T13:48:17.045Z,0.82
2023-10-06T13:50:46.994Z,0.82
2023-10-06T13:53:16.467Z,0.70
2023-10-06T13:55:46.804Z,0.70
2023-10-06T13:58:14.795Z,1.20
2023-10-06T14:00:43.585Z,0.63
2023-10-06T14:03:15.312Z,0.80
2023-10-06T14:05:45.295Z,0.85
2023-10-06T14:08:18.957Z,1.63
2023-10-06T14:10:50.156Z,0.50
2023-10-06T14:13:24.288Z,1.08
2023-10-06T14:15:55.967Z,0.82
2023-10-06T14:18:26.379Z,0.60
2023-10-06T14:23:31.265Z,0.50
2023-10-06T14:26:02.238Z,0.77
2023-10-06T14:28:30.763Z,0.70
2023-10-06T14:31:10.301Z,0.47
2023-10-06T14:33:41.235Z,0.30
2023-10-06T14:36:28.822Z,0.38
2023-10-06T14:39:14.330Z,0.50
2023-10-06T14:42:01.081Z,0.40
2023-10-06T14:44:46.666Z,0.50
2023-10-06T14:47:14.770Z,0.73
2023-10-06T14:49:44.394Z,0.70
2023-10-06T14:52:14.324Z,0.50
2023-10-06T14:54:42.450Z,0.60
2023-10-06T14:57:12.034Z,0.70
2023-10-06T14:59:43.191Z,0.63
2023-10-06T15:02:12.138Z,0.68
2023-10-06T15:04:41.472Z,0.45
2023-10-06T15:07:12.396Z,0.70
2023-10-06T15:09:40.743Z,0.70
2023-10-06T15:12:08.803Z,1.00
2023-10-06T15:14:38.823Z,0.95
2023-10-06T15:17:10.944Z,0.80
2023-10-06T15:19:39.165Z,0.80
2023-10-06T15:22:09.768Z,1.42
2023-10-06T15:24:38.763Z,1.00
2023-10-06T15:27:08.149Z,0.98
2023-10-06T15:29:38.744Z,0.95
2023-10-06T15:34:36.528Z,0.93
2023-10-06T15:37:05.754Z,0.70
2023-10-06T15:39:34.538Z,0.90
2023-10-06T15:42:04.927Z,1.10
2023-10-06T15:47:03.223Z,1.10
2023-10-06T15:49:31.216Z,1.20
2023-10-06T15:51:59.145Z,1.10
2023-10-06T15:54:27.215Z,1.00
2023-10-06T15:56:55.062Z,1.23
2023-10-06T15:59:25.903Z,1.83
2023-10-06T16:01:55.722Z,1.58
2023-10-06T16:04:27.720Z,1.40
2023-10-06T16:06:59.177Z,1.08
2023-10-06T16:09:27.628Z,1.60
2023-10-06T16:11:55.678Z,1.45
2023-10-06T16:14:23.565Z,1.58
2023-10-06T16:16:51.468Z,2.08
2023-10-06T16:19:19.387Z,1.45
2023-10-06T16:21:50.522Z,1.42
2023-10-06T16:24:18.614Z,1.40
2023-10-06T16:26:46.440Z,1.55
2023-10-06T16:29:14.672Z,1.65
2023-10-06T16:31:43.484Z,2.03
2023-10-06T16:34:11.390Z,1.80
2023-10-06T16:36:40.464Z,1.88
2023-10-06T16:39:17.873Z,1.83
2023-10-06T16:41:46.553Z,1.90
2023-10-06T16:44:16.283Z,2.00
2023-10-06T16:46:44.548Z,1.90
2023-10-06T16:49:13.108Z,1.63
2023-10-06T16:51:41.511Z,2.05
2023-10-06T16:54:11.755Z,1.77
2023-10-06T16:56:39.798Z,2.10
2023-10-06T16:59:08.409Z,3.17
2023-10-06T17:01:36.589Z,1.85
2023-10-06T17:04:07.588Z,2.20
2023-10-06T17:06:36.658Z,2.20
2023-10-06T17:09:14.926Z,1.95
2023-10-06T17:11:45.028Z,1.85
2023-10-06T17:14:13.977Z,2.63
2023-10-06T17:16:42.838Z,2.10
2023-10-06T17:19:13.080Z,2.97
2023-10-06T17:21:41.008Z,2.10
2023-10-06T17:24:11.945Z,2.13
2023-10-06T17:26:40.074Z,2.03
2023-10-06T17:29:11.746Z,1.98
2023-10-06T17:31:40.047Z,2.22
2023-10-06T17:34:08.298Z,2.17
2023-10-06T17:36:36.136Z,2.58
2023-10-06T17:39:04.555Z,3.05
2023-10-06T17:41:32.634Z,2.13
2023-10-06T17:44:00.482Z,2.72
2023-10-06T17:46:29.968Z,2.72
2023-10-06T17:48:58.232Z,2.47
2023-10-06T17:51:26.575Z,2.70
2023-10-06T17:53:54.565Z,2.63
2023-10-06T17:56:22.572Z,2.92
2023-10-06T17:58:51.138Z,2.28
2023-10-06T18:01:20.048Z,2.70
2023-10-06T18:03:49.830Z,2.22
2023-10-06T18:06:18.556Z,2.65
2023-10-06T18:08:46.859Z,3.13
2023-10-06T18:11:15.609Z,3.50
2023-10-06T18:13:43.833Z,2.97
2023-10-06T18:16:11.789Z,2.67
2023-10-06T18:18:41.342Z,3.08
2023-10-06T18:21:10.601Z,2.70
2023-10-06T18:23:38.489Z,2.40
2023-10-06T18:26:12.850Z,3.25
2023-10-06T18:28:40.866Z,2.63
2023-10-06T18:31:09.062Z,2.58
2023-10-06T18:33:37.412Z,3.33
2023-10-06T18:36:08.397Z,2.70
2023-10-06T18:38:37.719Z,2.90
2023-10-06T18:41:08.267Z,3.10
2023-10-06T18:46:07.023Z,2.45
2023-10-06T18:48:34.892Z,3.65
2023-10-06T18:51:04.919Z,3.00
2023-10-06T18:53:34.051Z,2.80
2023-10-06T18:56:04.637Z,2.70
2023-10-06T18:58:33.401Z,3.33
2023-10-06T19:01:01.641Z,3.30
2023-10-06T19:03:29.621Z,2.80
2023-10-06T19:06:01.166Z,2.83
2023-10-06T19:08:32.615Z,3.13
2023-10-06T19:11:00.583Z,3.15
2023-10-06T19:13:30.280Z,3.55
2023-10-06T19:15:59.543Z,3.30
2023-10-06T19:18:30.111Z,3.10
2023-10-06T19:23:31.852Z,3.38
2023-10-06T19:26:04.437Z,3.60
2023-10-06T19:28:34.122Z,3.78
2023-10-06T19:31:02.108Z,3.75
2023-10-06T19:33:30.490Z,3.72
2023-10-06T19:35:58.638Z,4.38
2023-10-06T19:38:27.035Z,3.83
2023-10-06T19:40:54.971Z,4.63
2023-10-06T19:43:22.983Z,3.65
2023-10-06T19:45:53.012Z,3.47
2023-10-06T19:48:21.533Z,3.50
2023-10-06T19:50:49.775Z,3.97
2023-10-06T19:53:17.710Z,3.80
2023-10-06T19:55:45.604Z,3.45
2023-10-06T19:58:13.726Z,4.15
2023-10-06T20:00:43.817Z,3.78
2023-10-06T20:03:13.125Z,3.22
2023-10-06T20:05:42.368Z,2.90
2023-10-06T20:08:10.550Z,4.35
2023-10-06T20:10:38.497Z,3.05
2023-10-06T20:13:07.026Z,3.70
2023-10-06T20:15:36.145Z,2.97
2023-10-06T20:18:04.316Z,4.03
2023-10-06T20:20:33.554Z,3.40
2023-10-06T20:23:02.197Z,3.47
2023-10-06T20:25:30.898Z,3.40
2023-10-06T20:27:58.754Z,3.70
2023-10-06T20:30:27.366Z,3.45
2023-10-06T20:32:57.239Z,3.70
2023-10-06T20:35:27.743Z,3.30
2023-10-06T20:40:29.448Z,3.67
2023-10-06T20:42:58.660Z,3.55
2023-10-06T20:45:28.912Z,3.10
2023-10-06T20:47:57.315Z,3.00
2023-10-06T20:50:25.460Z,2.78
2023-10-06T20:52:54.504Z,2.90
2023-10-06T20:55:25.212Z,2.90
2023-10-06T20:57:53.253Z,2.40
2023-10-06T21:00:24.116Z,2.97
2023-10-06T21:02:52.226Z,2.83
2023-10-06T21:05:20.669Z,2.95
2023-10-06T21:07:49.375Z,3.00
2023-10-06T21:10:18.657Z,2.10
2023-10-06T21:12:48.412Z,2.20
2023-10-06T21:15:16.307Z,2.63
2023-10-06T21:17:44.427Z,1.85
2023-10-06T21:20:14.033Z,2.00
2023-10-06T21:22:42.147Z,1.67
2023-10-06T21:25:13.994Z,2.60
2023-10-06T21:27:42.029Z,2.63
2023-10-06T21:30:16.667Z,2.53
2023-10-06T21:32:45.556Z,2.58
2023-10-06T21:35:15.388Z,2.53
2023-10-06T21:37:43.723Z,3.63
2023-10-06T21:40:13.029Z,2.40
2023-10-06T21:42:41.243Z,2.40
2023-10-06T21:45:11.943Z,2.42
2023-10-06T21:47:40.028Z,2.85
2023-10-06T21:50:10.228Z,2.03
2023-10-06T21:52:38.326Z,1.90
2023-10-06T21:55:06.941Z,1.48
2023-10-06T21:57:36.061Z,1.50
2023-10-06T22:00:12.443Z,1.20
2023-10-06T22:02:43.805Z,1.20
2023-10-06T22:05:12.048Z,2.53
2023-10-06T22:07:40.929Z,1.42
2023-10-06T22:10:10.447Z,0.20
2023-10-06T22:12:38.509Z,0.10
2023-10-06T22:15:07.646Z,0.10
2023-10-06T22:17:36.247Z,0.10
2023-10-06T22:20:09.188Z,0.10
2023-10-06T22:22:37.638Z,0.17
2023-10-06T22:25:06.757Z,0.10
2023-10-06T22:27:34.644Z,0.10
2023-10-06T22:30:02.524Z,0.10
2023-10-06T22:32:30.851Z,0.00
2023-10-06T22:34:58.890Z,0.10
2023-10-06T22:37:28.250Z,0.20
2023-10-06T22:39:56.317Z,0.10
2023-10-06T22:42:24.247Z,0.22
2023-10-06T22:44:52.454Z,0.00
2023-10-06T22:47:20.410Z,0.00
2023-10-06T22:49:48.316Z,0.00
2023-10-06T22:52:16.180Z,0.10
2023-10-06T22:54:46.889Z,0.10
2023-10-06T22:57:14.818Z,0.10
2023-10-06T22:59:42.647Z,0.00
2023-10-06T23:02:10.899Z,0.00
2023-10-06T23:04:38.904Z,0.00
2023-10-06T23:07:06.774Z,0.00
2023-10-06T23:09:36.482Z,0.03
2023-10-06T23:12:06.058Z,0.00
2023-10-06T23:14:33.929Z,0.90
2023-10-06T23:17:05.427Z,0.05
2023-10-06T23:19:35.390Z,0.00
2023-10-06T23:22:04.185Z,0.00
2023-10-06T23:24:48.866Z,0.08
2023-10-06T23:27:20.744Z,0.00
2023-10-06T23:29:49.620Z,0.10
2023-10-06T23:32:18.541Z,0.00
2023-10-06T23:34:46.619Z,0.10
2023-10-06T23:37:15.141Z,0.03
2023-10-06T23:39:43.130Z,0.15
2023-10-06T23:42:15.848Z,0.03
2023-10-06T23:44:49.109Z,0.10
2023-10-06T23:47:19.775Z,0.00
2023-10-06T23:49:48.388Z,0.10
2023-10-06T23:52:16.712Z,0.00
2023-10-06T23:54:47.921Z,0.00
2023-10-06T23:57:16.973Z,0.00
2023-10-06T23:59:49.231Z,0.10
